Time;durP1;ratioP1;P1;durP2;ratioP2;P2;SDS_P1;SDS_P2;PMS_P1;PMS_P2;Temp;Humidity;BMP_temperature;BMP_pressure;BME280_temperature;BME280_humidity;BME280_pressure;Samples;Min_cycle;Max_cycle;Signal;HPM_P1;HPM_P2
2021/09/29 04:01:06;;;;;;;7.40;4.95;;;11.00;99.90;;;;;;5624154;23;20332;-68
2021/09/29 04:03:33;;;;;;;5.43;5.03;;;11.00;99.90;;;;;;4933122;29;20649;-68
2021/09/29 04:06:00;;;;;;;5.95;5.40;;;11.00;99.90;;;;;;4934728;28;20618;-68
2021/09/29 04:08:26;;;;;;;6.00;5.05;;;11.00;99.90;;;;;;4934501;29;20218;-68
2021/09/29 04:10:55;;;;;;;5.15;4.65;;;11.10;99.90;;;;;;4934534;29;20304;-68
2021/09/29 04:13:22;;;;;;;6.75;4.90;;;11.10;99.90;;;;;;4934398;29;20254;-68
2021/09/29 04:15:49;;;;;;;5.20;4.75;;;11.10;99.90;;;;;;4935647;29;20240;-69
2021/09/29 04:18:17;;;;;;;4.95;4.55;;;11.10;99.90;;;;;;4937175;29;20214;-69
2021/09/29 04:20:44;;;;;;;5.50;5.10;;;11.10;99.90;;;;;;4938054;29;20238;-69
2021/09/29 04:23:11;;;;;;;8.43;5.13;;;11.10;99.90;;;;;;4937535;29;20273;-70
2021/09/29 04:25:39;;;;;;;6.38;4.90;;;11.10;99.90;;;;;;4938152;29;20268;-69
2021/09/29 04:28:06;;;;;;;5.35;4.75;;;11.10;99.90;;;;;;4928230;29;20542;-69
2021/09/29 04:30:32;;;;;;;6.35;4.85;;;11.10;99.90;;;;;;4918890;29;20237;-69
2021/09/29 04:33:00;;;;;;;7.80;5.18;;;11.10;99.90;;;;;;4917567;29;20670;-69
2021/09/29 04:35:28;;;;;;;8.68;5.22;;;11.20;99.90;;;;;;4918720;29;20226;-68
2021/09/29 04:37:55;;;;;;;5.88;5.32;;;11.20;99.90;;;;;;4918449;29;20365;-69
2021/09/29 04:40:22;;;;;;;6.95;4.82;;;11.20;99.90;;;;;;4918838;29;20234;-69
2021/09/29 04:42:49;;;;;;;7.38;5.47;;;11.20;99.90;;;;;;4922098;29;20266;-69
2021/09/29 04:45:16;;;;;;;5.25;4.95;;;11.20;99.90;;;;;;4920250;29;20297;-69
2021/09/29 04:47:43;;;;;;;5.40;4.90;;;11.10;99.90;;;;;;4918583;29;20246;-69
2021/09/29 04:50:10;;;;;;;5.13;4.68;;;11.10;99.90;;;;;;4919335;29;20265;-70
2021/09/29 04:52:38;;;;;;;5.95;5.43;;;11.20;99.90;;;;;;4918828;29;20206;-70
2021/09/29 04:55:06;;;;;;;5.45;5.15;;;11.20;99.90;;;;;;4919239;29;20282;-69
2021/09/29 04:57:33;;;;;;;6.07;5.43;;;11.10;99.90;;;;;;4918981;29;20620;-69
2021/09/29 05:00:00;;;;;;;5.38;5.18;;;11.10;99.90;;;;;;4918560;29;20214;-69
2021/09/29 05:02:28;;;;;;;6.00;5.60;;;11.10;99.90;;;;;;4917254;29;20242;-70
2021/09/29 05:04:54;;;;;;;6.15;5.60;;;11.10;99.90;;;;;;4918559;29;20274;-69
2021/09/29 05:07:21;;;;;;;6.10;5.40;;;11.10;99.90;;;;;;4918451;29;20206;-69
2021/09/29 05:09:51;;;;;;;5.40;4.95;;;11.10;99.90;;;;;;4918546;29;20219;-72
2021/09/29 05:12:25;;;;;;;5.78;4.93;;;11.10;99.90;;;;;;4917987;29;20810;-71
2021/09/29 05:14:52;;;;;;;5.10;4.90;;;11.10;99.90;;;;;;4919029;29;20241;-72
2021/09/29 05:17:19;;;;;;;6.30;5.80;;;11.10;99.90;;;;;;4917211;29;20602;-71
2021/09/29 05:19:46;;;;;;;6.88;6.03;;;11.10;99.90;;;;;;4918293;29;20214;-71
2021/09/29 05:22:12;;;;;;;5.70;5.20;;;11.10;99.90;;;;;;4918303;29;20234;-72
2021/09/29 05:24:40;;;;;;;7.35;5.35;;;11.10;99.90;;;;;;4918373;29;20254;-71
2021/09/29 05:27:08;;;;;;;5.90;5.47;;;11.10;99.90;;;;;;4913745;29;20223;-72
2021/09/29 05:29:36;;;;;;;9.32;5.50;;;11.10;99.90;;;;;;4918204;29;20211;-71
2021/09/29 05:32:03;;;;;;;7.32;6.07;;;11.10;99.90;;;;;;4916854;29;20287;-70
2021/09/29 05:34:29;;;;;;;5.38;4.88;;;11.10;99.90;;;;;;4918691;29;20231;-71
2021/09/29 05:36:56;;;;;;;8.27;4.90;;;11.20;99.90;;;;;;4917739;29;20273;-71
2021/09/29 05:39:23;;;;;;;6.07;5.68;;;11.20;99.90;;;;;;4918147;29;20287;-71
2021/09/29 05:41:50;;;;;;;8.35;5.93;;;11.20;99.90;;;;;;4917575;29;20257;-71
2021/09/29 05:44:18;;;;;;;5.20;4.80;;;11.20;99.90;;;;;;4917377;29;20215;-71
2021/09/29 05:46:45;;;;;;;7.75;5.05;;;11.20;99.90;;;;;;4916707;29;20218;-71
2021/09/29 05:49:12;;;;;;;6.03;5.40;;;11.20;99.90;;;;;;4917056;29;20206;-71
2021/09/29 05:51:39;;;;;;;5.85;5.55;;;11.20;99.90;;;;;;4918187;29;20281;-71
2021/09/29 05:54:06;;;;;;;6.00;5.55;;;11.20;99.90;;;;;;4917645;29;20223;-72
2021/09/29 05:56:32;;;;;;;5.70;5.30;;;11.20;99.90;;;;;;4917209;29;20289;-71
2021/09/29 05:58:59;;;;;;;5.65;5.32;;;11.30;99.90;;;;;;4917567;29;20214;-71
2021/09/29 06:01:27;;;;;;;5.13;4.65;;;11.30;99.90;;;;;;4917597;29;20337;-71
2021/09/29 06:03:54;;;;;;;6.40;5.80;;;11.30;99.90;;;;;;4916797;29;20218;-71
2021/09/29 06:06:20;;;;;;;6.05;5.55;;;11.40;99.90;;;;;;4919060;29;20617;-71
2021/09/29 06:08:47;;;;;;;6.10;5.10;;;11.40;99.90;;;;;;4917415;29;20270;-71
2021/09/29 06:11:14;;;;;;;6.97;5.32;;;11.40;99.90;;;;;;4919745;28;20238;-70
2021/09/29 06:13:40;;;;;;;7.00;5.90;;;11.40;99.90;;;;;;4916872;29;20698;-70
2021/09/29 06:16:09;;;;;;;6.03;5.65;;;11.40;99.90;;;;;;4917151;29;20234;-69
2021/09/29 06:18:38;;;;;;;5.75;5.35;;;11.50;99.90;;;;;;4916717;29;20212;-69
2021/09/29 06:21:07;;;;;;;11.00;5.85;;;11.50;99.90;;;;;;4917610;29;20235;-69
2021/09/29 06:23:34;;;;;;;9.25;5.70;;;11.50;99.90;;;;;;4917135;29;20218;-69
2021/09/29 06:26:01;;;;;;;5.80;5.38;;;11.50;99.90;;;;;;4917095;29;20274;-70
2021/09/29 06:28:32;;;;;;;7.65;5.65;;;11.60;99.90;;;;;;4930072;29;20572;-69
2021/09/29 06:30:58;;;;;;;7.90;5.75;;;11.60;99.90;;;;;;4935875;29;20229;-69
2021/09/29 06:33:25;;;;;;;5.78;5.43;;;11.60;99.90;;;;;;4935489;29;20271;-69
2021/09/29 06:35:53;;;;;;;6.75;6.20;;;11.60;99.90;;;;;;4935509;29;20234;-71
2021/09/29 06:38:20;;;;;;;6.18;5.60;;;11.60;99.90;;;;;;4935416;29;20360;-71
2021/09/29 06:40:46;;;;;;;7.30;5.18;;;11.70;99.90;;;;;;4934362;29;20277;-71
2021/09/29 06:43:13;;;;;;;5.88;5.47;;;11.70;99.90;;;;;;4935584;29;20206;-71
2021/09/29 06:45:40;;;;;;;5.95;5.55;;;11.70;99.90;;;;;;4936209;29;20651;-71
2021/09/29 06:48:06;;;;;;;6.60;4.95;;;11.80;99.90;;;;;;4934500;29;20670;-71
2021/09/29 06:50:33;;;;;;;5.85;5.35;;;11.90;99.90;;;;;;4935950;29;20234;-71
2021/09/29 06:53:01;;;;;;;6.20;5.70;;;12.00;99.90;;;;;;4934943;29;20224;-72
2021/09/29 06:55:28;;;;;;;6.38;5.82;;;12.00;99.90;;;;;;4935294;29;20226;-71
2021/09/29 06:57:55;;;;;;;6.78;6.28;;;12.10;99.90;;;;;;4935495;29;20264;-71
2021/09/29 07:00:23;;;;;;;6.05;5.65;;;12.20;99.90;;;;;;4935302;29;20209;-72
2021/09/29 07:02:50;;;;;;;5.68;5.28;;;12.30;99.90;;;;;;4934363;29;20213;-71
2021/09/29 07:05:18;;;;;;;5.78;5.38;;;12.30;99.90;;;;;;4935530;29;20317;-71
2021/09/29 07:07:45;;;;;;;6.00;5.60;;;12.30;99.90;;;;;;4935011;29;20232;-71
2021/09/29 07:10:14;;;;;;;8.47;7.13;;;12.40;99.90;;;;;;4935273;29;20529;-72
2021/09/29 07:12:43;;;;;;;7.30;6.72;;;12.40;99.90;;;;;;4935833;29;20557;-69
2021/09/29 07:15:11;;;;;;;7.70;7.00;;;12.50;99.90;;;;;;4935310;29;20221;-68
2021/09/29 07:17:38;;;;;;;7.20;6.70;;;12.60;99.90;;;;;;4934507;28;20218;-70
2021/09/29 07:20:09;;;;;;;7.77;6.40;;;12.70;99.90;;;;;;4935222;29;20885;-73
2021/09/29 07:22:35;;;;;;;8.13;7.33;;;12.80;99.90;;;;;;4935326;29;20918;-70
2021/09/29 07:25:02;;;;;;;8.10;7.50;;;12.80;99.90;;;;;;4935468;29;20477;-71
2021/09/29 07:27:31;;;;;;;7.50;6.80;;;12.90;99.90;;;;;;4934773;29;21029;-71
2021/09/29 07:29:58;;;;;;;7.40;6.70;;;13.00;99.90;;;;;;4935147;29;20461;-71
2021/09/29 07:32:25;;;;;;;6.90;6.30;;;13.00;99.90;;;;;;4933769;29;20606;-71
2021/09/29 07:34:52;;;;;;;7.70;6.10;;;13.10;99.90;;;;;;4934903;29;20902;-71
2021/09/29 07:37:18;;;;;;;8.50;7.80;;;13.10;99.90;;;;;;4934807;29;20469;-71
2021/09/29 07:39:46;;;;;;;8.40;7.70;;;13.20;99.90;;;;;;4935021;29;20528;-71
2021/09/29 07:42:13;;;;;;;8.63;7.83;;;13.30;99.90;;;;;;4934479;29;20489;-70
2021/09/29 07:44:41;;;;;;;8.73;7.07;;;13.30;99.90;;;;;;4935080;29;20552;-71
2021/09/29 07:47:08;;;;;;;9.20;7.97;;;13.40;99.90;;;;;;4933896;29;20465;-71
2021/09/29 07:49:35;;;;;;;8.33;7.57;;;13.50;99.90;;;;;;4929945;29;20616;-71
2021/09/29 07:52:01;;;;;;;8.03;7.30;;;13.60;99.90;;;;;;4918532;29;20900;-70
2021/09/29 07:54:29;;;;;;;8.13;7.53;;;13.60;99.90;;;;;;4919909;29;20474;-71
2021/09/29 07:56:56;;;;;;;8.03;7.33;;;13.70;99.90;;;;;;4919462;29;20900;-71
2021/09/29 07:59:23;;;;;;;8.63;7.87;;;13.80;99.90;;;;;;4920690;29;20885;-72
2021/09/29 08:01:51;;;;;;;8.83;8.07;;;13.90;99.90;;;;;;4918662;29;20672;-71
2021/09/29 08:04:20;;;;;;;8.77;7.93;;;14.00;99.90;;;;;;4920028;29;20847;-71
2021/09/29 08:06:47;;;;;;;10.63;8.50;;;14.00;99.90;;;;;;4920367;29;20805;-71
2021/09/29 08:09:14;;;;;;;9.80;8.47;;;14.00;99.90;;;;;;4919557;29;20485;-71
2021/09/29 08:11:41;;;;;;;8.70;7.90;;;14.10;99.90;;;;;;4919139;29;20962;-71
2021/09/29 08:14:07;;;;;;;12.07;8.13;;;14.10;99.90;;;;;;4918997;29;20619;-71
2021/09/29 08:16:34;;;;;;;8.27;7.50;;;14.10;99.90;;;;;;4916613;29;20668;-69
2021/09/29 08:19:02;;;;;;;8.60;7.60;;;14.20;99.90;;;;;;4918865;29;20470;-73
2021/09/29 08:21:29;;;;;;;7.90;6.90;;;14.30;99.90;;;;;;4919160;29;20490;-70
2021/09/29 08:24:01;;;;;;;8.53;7.67;;;14.30;99.90;;;;;;4918934;29;20509;-71
2021/09/29 08:26:38;;;;;;;8.60;7.30;;;14.40;99.90;;;;;;4918895;29;20549;-69
2021/09/29 08:29:17;;;;;;;8.70;7.90;;;14.50;99.90;;;;;;4918676;29;20506;-71
2021/09/29 08:31:50;;;;;;;8.40;7.70;;;14.50;99.90;;;;;;4918467;29;20553;-73
2021/09/29 08:34:21;;;;;;;8.60;7.60;;;14.60;99.90;;;;;;4918802;29;20466;-71
2021/09/29 08:36:53;;;;;;;8.67;7.93;;;14.70;99.90;;;;;;4918812;29;20489;-71
2021/09/29 08:39:27;;;;;;;8.60;7.70;;;14.80;99.90;;;;;;4918993;29;20470;-71
2021/09/29 08:42:21;;;;;;;7.97;7.27;;;15.00;99.90;;;;;;4918716;29;20489;-70
2021/09/29 08:44:52;;;;;;;8.70;8.00;;;15.00;99.90;;;;;;4918830;29;20494;-71
2021/09/29 08:47:31;;;;;;;7.40;6.63;;;15.10;99.90;;;;;;4917841;29;20549;-73
2021/09/29 08:50:08;;;;;;;7.23;6.63;;;15.10;99.90;;;;;;4918911;29;20830;-71
2021/09/29 08:52:52;;;;;;;8.53;7.67;;;15.20;99.90;;;;;;4918325;29;20466;-71
2021/09/29 09:17:31;;;;;;;7.13;6.43;;;15.40;99.90;;;;;;4916283;29;20498;-71
2021/09/29 09:20:14;;;;;;;10.43;6.27;;;15.40;99.90;;;;;;4918218;29;20474;-71
2021/09/29 09:22:43;;;;;;;7.57;6.97;;;15.40;99.90;;;;;;4917988;29;20494;-71
2021/09/29 09:25:10;;;;;;;7.20;6.50;;;15.50;99.90;;;;;;4918475;29;20506;-69
2021/09/29 09:27:46;;;;;;;7.33;6.70;;;15.50;99.90;;;;;;4918236;29;20466;-69
2021/09/29 09:30:26;;;;;;;6.63;6.23;;;15.60;99.90;;;;;;4917952;29;20473;-70
2021/09/29 09:32:56;;;;;;;13.43;7.03;;;15.70;99.90;;;;;;4917098;29;20470;-68
2021/09/29 09:35:24;;;;;;;11.43;7.30;;;15.70;99.90;;;;;;4917780;29;20798;-69
2021/09/29 09:37:57;;;;;;;9.33;6.50;;;15.80;99.90;;;;;;4918101;29;20521;-72
2021/09/29 09:40:26;;;;;;;8.70;7.10;;;15.80;99.90;;;;;;4917820;29;20475;-72
2021/09/29 09:42:57;;;;;;;10.90;8.10;;;16.00;99.90;;;;;;4917651;29;20821;-71
2021/09/29 09:45:32;;;;;;;7.80;7.13;;;15.90;99.90;;;;;;4917868;29;20471;-72
2021/09/29 09:47:59;;;;;;;12.87;7.60;;;15.90;99.90;;;;;;4916943;29;20466;-72
2021/09/29 09:50:26;;;;;;;7.97;6.10;;;16.20;99.90;;;;;;4917694;29;20569;-72
2021/09/29 09:52:55;;;;;;;8.83;7.73;;;16.30;99.90;;;;;;4917493;29;20832;-72
2021/09/29 09:55:23;;;;;;;9.90;7.33;;;16.40;99.90;;;;;;4917685;29;20525;-73
2021/09/29 09:57:53;;;;;;;8.63;7.13;;;16.40;99.90;;;;;;4917873;29;20554;-72
2021/09/29 10:00:24;;;;;;;8.13;7.43;;;16.40;99.90;;;;;;4917896;29;20463;-72
2021/09/29 10:02:54;;;;;;;6.97;6.30;;;16.40;99.90;;;;;;4916441;29;20899;-72
2021/09/29 10:05:21;;;;;;;7.90;7.30;;;16.40;99.90;;;;;;4917925;29;20951;-71
2021/09/29 10:07:49;;;;;;;7.83;7.07;;;16.40;99.90;;;;;;4917811;29;20498;-69
2021/09/29 10:10:23;;;;;;;7.50;6.70;;;16.40;99.90;;;;;;4917427;29;20527;-70
2021/09/29 10:27:24;;;;;;;7.97;7.20;;;16.70;99.90;;;;;;4907116;29;20466;-70
2021/09/29 10:30:04;;;;;;;8.43;7.10;;;16.70;99.90;;;;;;4918669;29;20474;-71
2021/09/29 10:32:41;;;;;;;6.80;6.30;;;16.70;99.90;;;;;;4918043;29;20585;-70
2021/09/29 10:35:13;;;;;;;7.30;6.70;;;16.70;99.90;;;;;;4917269;29;20797;-72
2021/09/29 10:37:55;;;;;;;6.70;6.10;;;16.80;99.90;;;;;;4916425;29;20549;-72
2021/09/29 10:40:34;;;;;;;7.03;6.40;;;16.90;99.90;;;;;;4916569;29;20553;-72
2021/09/29 10:43:03;;;;;;;8.37;6.93;;;17.00;99.90;;;;;;4916383;29;20477;-72
2021/09/29 10:45:41;;;;;;;7.77;7.10;;;17.10;99.90;;;;;;4916777;29;20553;-72
2021/09/29 10:48:31;;;;;;;10.33;6.90;;;17.00;99.90;;;;;;4915683;29;20566;-72
2021/09/29 11:05:41;;;;;;;7.63;6.93;;;17.20;99.90;;;;;;4916390;29;20957;-72
2021/09/29 11:30:32;;;;;;;9.10;8.23;;;17.20;99.90;;;;;;4916374;29;20537;-72
2021/09/29 11:33:04;;;;;;;7.73;7.03;;;17.20;99.90;;;;;;4915222;29;20973;-71
2021/09/29 11:35:42;;;;;;;9.03;8.40;;;17.30;99.90;;;;;;4916098;29;20506;-71
2021/09/29 11:38:31;;;;;;;8.70;7.80;;;17.40;99.90;;;;;;4915824;29;20461;-72
2021/09/29 12:08:44;;;;;;;6.77;6.27;;;18.10;99.90;;;;;;4914848;29;20466;-70
2021/09/29 12:11:13;;;;;;;6.97;5.53;;;18.10;99.90;;;;;;4934710;29;20514;-71
2021/09/29 12:13:46;;;;;;;7.00;6.40;;;18.00;99.90;;;;;;4933993;29;20465;-71
2021/09/29 12:16:24;;;;;;;6.40;6.00;;;18.00;99.90;;;;;;4934180;28;21094;-70
2021/09/29 12:18:56;;;;;;;5.87;5.30;;;18.10;99.90;;;;;;4933372;29;20466;-71
2021/09/29 12:21:38;;;;;;;5.00;4.70;;;18.20;99.90;;;;;;4934730;29;20556;-71
2021/09/29 12:24:07;;;;;;;5.80;4.80;;;18.30;99.90;;;;;;4934260;29;20476;-72
2021/09/29 12:26:41;;;;;;;4.70;4.33;;;18.20;99.90;;;;;;4934300;29;20466;-72
2021/09/29 12:29:22;;;;;;;6.30;4.57;;;18.20;99.90;;;;;;4934639;29;20520;-72
2021/09/29 12:32:07;;;;;;;4.70;4.40;;;18.20;99.90;;;;;;4934142;29;20765;-70
2021/09/29 12:34:47;;;;;;;6.83;5.10;;;18.10;99.90;;;;;;4936237;29;20462;-72
2021/09/29 12:37:15;;;;;;;8.33;5.10;;;18.20;99.90;;;;;;4935230;29;20496;-71
2021/09/29 12:39:43;;;;;;;5.70;4.80;;;18.30;99.90;;;;;;4927675;29;20472;-71
2021/09/29 12:42:10;;;;;;;4.27;3.97;;;18.40;99.90;;;;;;4918464;29;20586;-69
2021/09/29 12:44:52;;;;;;;3.83;3.40;;;18.40;99.90;;;;;;4918665;29;20466;-69
2021/09/29 12:47:24;;;;;;;3.83;3.33;;;18.50;99.90;;;;;;4917383;29;20946;-69
2021/09/29 12:49:54;;;;;;;3.30;3.00;;;18.60;99.90;;;;;;4918681;29;20530;-69
2021/09/29 12:52:32;;;;;;;5.63;3.17;;;18.50;99.90;;;;;;4918385;29;20827;-69
2021/09/29 12:55:00;;;;;;;4.00;3.70;;;18.50;99.90;;;;;;4918499;29;20474;-69
2021/09/29 12:57:29;;;;;;;3.40;3.17;;;18.50;99.90;;;;;;4931610;29;20486;-69
2021/09/29 12:59:56;;;;;;;3.57;3.37;;;18.60;99.90;;;;;;4932729;29;20466;-69
2021/09/29 13:02:23;;;;;;;3.00;2.90;;;18.70;99.90;;;;;;4931029;29;20485;-69
2021/09/29 13:04:50;;;;;;;4.27;3.87;;;18.70;99.90;;;;;;4930749;29;20474;-69
2021/09/29 13:07:17;;;;;;;3.33;3.00;;;18.70;99.90;;;;;;4931294;29;20518;-69
2021/09/29 13:09:45;;;;;;;3.07;2.93;;;18.60;99.90;;;;;;4932290;29;20462;-69
2021/09/29 13:12:12;;;;;;;2.83;2.63;;;18.40;99.90;;;;;;4930902;29;20991;-69
2021/09/29 13:14:39;;;;;;;2.30;2.30;;;18.20;99.90;;;;;;4919242;29;20470;-69
2021/09/29 13:17:06;;;;;;;3.13;2.90;;;18.10;99.90;;;;;;4917821;29;20545;-69
2021/09/29 13:19:40;;;;;;;6.13;3.20;;;18.10;99.90;;;;;;4918920;29;20510;-70
2021/09/29 13:22:15;;;;;;;2.70;2.60;;;18.00;99.90;;;;;;4918756;29;20600;-69
2021/09/29 13:24:55;;;;;;;3.10;2.90;;;18.00;99.90;;;;;;4918989;29;20959;-69
2021/09/29 13:27:38;;;;;;;3.20;3.00;;;18.00;99.90;;;;;;4918918;29;20473;-69
2021/09/29 13:38:19;;;;;;;6.33;4.27;;;17.80;99.90;;;;;;4917673;29;21004;-68
2021/09/29 13:40:46;;;;;;;3.50;3.20;;;17.60;99.90;;;;;;4917784;29;20680;-68
2021/09/29 13:43:15;;;;;;;3.63;3.33;;;17.30;99.90;;;;;;4917421;29;20471;-68
2021/09/29 13:45:42;;;;;;;3.10;3.00;;;16.80;99.90;;;;;;4917970;29;20570;-68
2021/09/29 13:48:09;;;;;;;3.40;3.20;;;16.70;99.90;;;;;;4916580;29;20518;-68
2021/09/29 13:50:35;;;;;;;3.40;3.13;;;16.60;99.90;;;;;;4917586;29;20518;-68
2021/09/29 13:53:03;;;;;;;3.40;3.20;;;16.50;99.90;;;;;;4917828;29;20470;-67
2021/09/29 13:55:32;;;;;;;3.07;2.97;;;16.40;99.90;;;;;;4917499;29;20474;-68
2021/09/29 13:58:02;;;;;;;3.17;2.90;;;16.30;99.90;;;;;;4917152;29;20578;-69
2021/09/29 14:00:42;;;;;;;2.63;2.47;;;16.40;99.90;;;;;;4917525;29;20494;-68
2021/09/29 14:03:32;;;;;;;2.63;2.53;;;16.30;99.90;;;;;;4916515;29;20461;-69
2021/09/29 14:31:15;;;;;;;2.77;2.67;;;16.60;99.90;;;;;;4881702;29;20522;-69
2021/09/29 14:33:48;;;;;;;2.97;2.77;;;16.70;99.90;;;;;;4914625;29;20462;-69
2021/09/29 14:36:15;;;;;;;2.60;2.50;;;16.90;99.90;;;;;;4917456;29;20459;-69
2021/09/29 14:38:43;;;;;;;2.60;2.60;;;17.00;99.90;;;;;;4916513;29;20953;-69
2021/09/29 14:41:09;;;;;;;4.07;2.20;;;16.90;99.90;;;;;;4917169;29;20486;-69
2021/09/29 14:43:36;;;;;;;2.60;2.40;;;16.90;99.90;;;;;;4916308;29;20538;-69
2021/09/29 14:46:03;;;;;;;2.17;2.00;;;16.90;99.90;;;;;;4916885;29;20466;-69
2021/09/29 14:48:30;;;;;;;3.03;2.10;;;16.80;99.90;;;;;;4915508;29;20538;-69
2021/09/29 14:50:58;;;;;;;2.87;2.67;;;16.80;99.90;;;;;;4916784;29;20483;-69
2021/09/29 14:53:24;;;;;;;2.27;2.17;;;16.80;99.90;;;;;;4916569;29;20467;-68
2021/09/29 14:55:51;;;;;;;2.47;2.20;;;16.70;99.90;;;;;;4916648;29;20474;-69
2021/09/29 14:58:19;;;;;;;2.20;2.00;;;16.60;99.90;;;;;;4916256;29;20493;-68
2021/09/29 15:00:46;;;;;;;2.70;2.50;;;16.50;99.90;;;;;;4915233;29;20526;-69
2021/09/29 15:03:12;;;;;;;2.37;2.20;;;16.50;99.90;;;;;;4915430;29;20466;-69
2021/09/29 15:05:39;;;;;;;2.23;2.10;;;16.40;99.90;;;;;;4916723;29;20470;-68
2021/09/29 15:08:07;;;;;;;3.60;2.30;;;16.30;99.90;;;;;;4916008;29;20604;-68
2021/09/29 15:10:34;;;;;;;2.00;1.60;;;16.10;99.90;;;;;;4916306;29;20490;-68
2021/09/29 15:13:05;;;;;;;1.50;1.00;;;15.90;99.90;;;;;;4915972;29;20561;-68
2021/09/29 15:15:34;;;;;;;1.03;1.03;;;15.60;99.90;;;;;;4915950;29;20824;-68
2021/09/29 15:18:04;;;;;;;2.10;1.43;;;15.10;99.90;;;;;;4913895;29;20550;-67
2021/09/29 15:20:46;;;;;;;0.57;0.57;;;14.40;99.90;;;;;;4916401;29;20546;-68
2021/09/29 15:23:22;;;;;;;0.60;0.60;;;13.80;99.90;;;;;;4915931;29;20472;-68
2021/09/29 15:26:26;;;;;;;0.90;0.90;;;13.50;99.90;;;;;;4915982;29;20513;-68
2021/09/29 15:29:14;;;;;;;1.30;1.13;;;13.30;99.90;;;;;;4915934;29;20466;-68
2021/09/29 15:31:55;;;;;;;0.50;0.50;;;13.20;99.90;;;;;;4915390;29;20513;-70
2021/09/29 15:48:07;;;;;;;1.15;1.05;;;12.90;99.90;;;;;;4914914;29;20218;-68
2021/09/29 15:50:41;;;;;;;1.20;1.20;;;12.80;99.90;;;;;;4915764;29;20235;-67
2021/09/29 15:53:38;;;;;;;1.60;1.52;;;12.80;99.90;;;;;;4915644;29;20213;-69
2021/09/29 15:56:09;;;;;;;1.85;1.40;;;12.80;99.90;;;;;;4916233;29;20573;-69
2021/09/29 15:58:51;;;;;;;1.15;1.15;;;12.80;99.90;;;;;;4915566;29;20665;-69
2021/09/29 16:01:20;;;;;;;2.85;1.40;;;12.80;99.90;;;;;;4915973;29;20337;-72
2021/09/29 16:03:57;;;;;;;1.42;1.30;;;12.80;99.90;;;;;;4914990;29;20214;-71
2021/09/29 16:06:33;;;;;;;1.30;1.30;;;12.70;99.90;;;;;;4916129;29;20240;-71
2021/09/29 16:12:10;;;;;;;2.00;1.98;;;12.80;99.90;;;;;;4915855;29;20253;-70
2021/09/29 16:31:29;;;;;;;3.55;3.40;;;12.70;99.90;;;;;;4918841;29;20710;-69
2021/09/29 16:33:58;;;;;;;2.42;2.42;;;12.70;99.90;;;;;;4917937;29;20609;-69
2021/09/29 16:36:25;;;;;;;2.60;2.60;;;12.80;99.90;;;;;;4918787;29;20686;-69
2021/09/29 16:38:52;;;;;;;3.47;3.38;;;12.80;99.90;;;;;;4918177;29;20236;-68
2021/09/29 16:41:21;;;;;;;3.33;2.53;;;12.80;99.90;;;;;;4919046;29;20301;-68
2021/09/29 16:43:49;;;;;;;5.20;3.28;;;12.80;99.90;;;;;;4918469;29;20213;-68
2021/09/29 16:46:19;;;;;;;2.10;2.00;;;12.80;99.90;;;;;;4918827;29;20296;-68
2021/09/29 16:48:47;;;;;;;2.03;1.92;;;12.70;99.90;;;;;;4917760;29;20211;-68
2021/09/29 16:51:23;;;;;;;2.15;2.03;;;12.70;99.90;;;;;;4918719;29;20269;-68
2021/09/29 16:53:52;;;;;;;2.03;2.03;;;12.60;99.90;;;;;;4918585;29;20293;-69
2021/09/29 16:56:19;;;;;;;2.63;1.95;;;12.60;99.90;;;;;;4918712;29;20545;-71
2021/09/29 16:58:48;;;;;;;2.30;2.10;;;12.50;99.90;;;;;;4918267;29;20257;-71
2021/09/29 17:01:18;;;;;;;1.75;1.65;;;12.50;99.90;;;;;;4918342;29;20238;-71
2021/09/29 17:03:46;;;;;;;2.10;2.00;;;12.50;99.90;;;;;;4917914;29;20384;-69
2021/09/29 17:06:14;;;;;;;1.95;1.85;;;12.50;99.90;;;;;;4918839;29;20234;-68
2021/09/29 17:08:41;;;;;;;2.30;2.20;;;12.40;99.90;;;;;;4918257;29;20207;-68
2021/09/29 17:11:10;;;;;;;2.40;2.30;;;12.40;99.90;;;;;;4918239;29;20234;-68
2021/09/29 17:13:38;;;;;;;2.10;2.10;;;12.40;99.90;;;;;;4917907;29;20629;-70
2021/09/29 17:16:05;;;;;;;2.58;2.58;;;12.40;99.90;;;;;;4916901;29;20277;-69
2021/09/29 17:18:33;;;;;;;2.58;2.55;;;12.40;99.90;;;;;;4917078;29;20238;-69
2021/09/29 17:21:00;;;;;;;3.33;2.25;;;12.40;99.90;;;;;;4918237;29;20230;-68
2021/09/29 17:23:30;;;;;;;3.50;3.17;;;12.40;99.90;;;;;;4917046;29;20214;-68
2021/09/29 17:25:57;;;;;;;2.47;2.47;;;12.40;99.90;;;;;;4918361;29;20238;-68
2021/09/29 17:28:25;;;;;;;2.20;2.20;;;12.30;99.90;;;;;;4917634;29;20210;-69
2021/09/29 17:30:55;;;;;;;2.10;2.10;;;12.30;99.90;;;;;;4917666;29;20758;-69
2021/09/29 17:33:33;;;;;;;2.40;2.40;;;12.20;99.90;;;;;;4916920;29;20215;-72
2021/09/29 17:52:45;;;;;;;2.25;2.15;;;12.10;99.90;;;;;;4917162;29;20204;-69
2021/09/29 17:55:14;;;;;;;1.92;1.92;;;12.10;99.90;;;;;;4917539;29;20301;-69
2021/09/29 17:57:41;;;;;;;1.55;1.55;;;12.20;99.90;;;;;;4917112;29;20521;-70
2021/09/29 18:00:10;;;;;;;1.50;1.50;;;12.10;99.90;;;;;;4917178;29;20210;-70
2021/09/29 18:02:44;;;;;;;1.85;1.73;;;12.10;99.90;;;;;;4916156;29;20571;-69
2021/09/29 18:05:14;;;;;;;1.70;1.60;;;12.10;99.90;;;;;;4917448;29;20210;-69
2021/09/29 18:07:43;;;;;;;1.50;1.50;;;12.00;99.90;;;;;;4934693;29;20292;-69
2021/09/29 18:10:13;;;;;;;1.73;1.73;;;12.00;99.90;;;;;;4936063;29;20210;-69
2021/09/29 18:12:40;;;;;;;1.42;1.42;;;11.90;99.90;;;;;;4936102;29;20214;-69
2021/09/29 18:15:08;;;;;;;1.73;1.65;;;11.90;99.90;;;;;;4936320;29;20214;-69
2021/09/29 18:17:36;;;;;;;1.70;1.70;;;11.80;99.90;;;;;;4934926;28;20353;-69
2021/09/29 18:20:04;;;;;;;1.63;1.52;;;11.80;99.90;;;;;;4936073;29;20237;-72
2021/09/29 18:22:31;;;;;;;2.13;2.13;;;11.80;99.90;;;;;;4935157;28;20281;-72
2021/09/29 18:24:59;;;;;;;1.75;1.75;;;11.70;99.90;;;;;;4935775;29;20210;-72
2021/09/29 18:27:26;;;;;;;1.88;1.77;;;11.70;99.90;;;;;;4935646;29;20217;-71
2021/09/29 18:29:54;;;;;;;1.70;1.70;;;11.70;99.90;;;;;;4935663;29;20268;-73
2021/09/29 18:32:21;;;;;;;2.10;2.10;;;11.70;99.90;;;;;;4934484;29;20692;-72
2021/09/29 18:34:48;;;;;;;2.00;2.00;;;11.70;99.90;;;;;;4935504;29;20554;-72
2021/09/29 18:37:15;;;;;;;1.83;1.83;;;11.70;99.90;;;;;;4935394;29;20229;-72
2021/09/29 18:39:43;;;;;;;2.33;2.33;;;11.70;99.90;;;;;;4935298;29;20240;-69
2021/09/29 18:42:13;;;;;;;4.13;2.38;;;11.60;99.90;;;;;;4935172;29;20226;-70
2021/09/29 18:44:40;;;;;;;2.08;1.80;;;11.60;99.90;;;;;;4935554;29;20205;-69
2021/09/29 18:47:09;;;;;;;1.92;1.92;;;11.60;99.90;;;;;;4934503;29;20307;-70
2021/09/29 18:49:36;;;;;;;2.05;2.05;;;11.50;99.90;;;;;;4935430;29;20201;-69
2021/09/29 18:52:04;;;;;;;2.17;2.08;;;11.50;99.90;;;;;;4934646;29;20234;-71
2021/09/29 18:54:34;;;;;;;1.85;1.85;;;11.40;99.90;;;;;;4935426;29;20639;-70
2021/09/29 19:08:14;;;;;;;2.20;2.15;;;11.30;99.90;;;;;;4929411;29;20617;-69
2021/09/29 19:10:41;;;;;;;2.03;2.03;;;11.20;99.90;;;;;;4935027;29;20701;-70
2021/09/29 19:13:08;;;;;;;1.85;1.75;;;11.20;99.90;;;;;;4934918;29;20264;-70
2021/09/29 19:15:36;;;;;;;1.70;1.70;;;11.20;99.90;;;;;;4935110;29;20268;-72
2021/09/29 19:18:04;;;;;;;2.10;2.10;;;11.10;99.90;;;;;;4933844;29;20375;-71
2021/09/29 19:20:31;;;;;;;1.80;1.80;;;11.10;99.90;;;;;;4935333;29;20229;-72
2021/09/29 19:22:58;;;;;;;1.58;1.48;;;11.10;99.90;;;;;;4934821;29;20241;-73
2021/09/29 19:25:25;;;;;;;1.75;1.75;;;11.10;99.90;;;;;;4935015;29;20271;-71
2021/09/29 19:27:56;;;;;;;1.95;1.95;;;11.00;99.90;;;;;;4934135;29;20212;-70
2021/09/29 19:30:23;;;;;;;2.03;1.65;;;11.00;99.90;;;;;;4917324;29;20525;-72
2021/09/29 19:32:53;;;;;;;1.90;1.90;;;11.00;99.90;;;;;;4916170;29;20257;-72
2021/09/29 19:35:20;;;;;;;2.10;2.00;;;11.00;99.90;;;;;;4916320;29;20222;-72
2021/09/29 19:37:48;;;;;;;2.20;2.10;;;10.90;99.90;;;;;;4915617;29;20289;-71
2021/09/29 19:40:16;;;;;;;2.65;2.55;;;10.90;99.90;;;;;;4916058;29;20218;-71
2021/09/29 19:42:43;;;;;;;1.50;1.50;;;10.90;99.90;;;;;;4915640;29;20496;-72
2021/09/29 19:45:12;;;;;;;1.75;1.70;;;10.90;99.90;;;;;;4915937;29;20214;-71
2021/09/29 19:47:47;;;;;;;1.95;1.95;;;10.80;99.90;;;;;;4916999;29;20590;-70
2021/09/29 19:50:28;;;;;;;1.98;1.98;;;10.80;99.90;;;;;;4919599;29;20305;-71
2021/09/29 20:09:20;;;;;;;1.70;1.70;;;10.80;99.90;;;;;;4919724;29;20285;-72
2021/09/29 20:11:47;;;;;;;2.75;2.75;;;10.80;99.90;;;;;;4919396;29;20567;-71
2021/09/29 20:14:17;;;;;;;2.58;2.38;;;10.70;99.90;;;;;;4919644;29;20285;-73
2021/09/29 20:16:45;;;;;;;2.35;2.15;;;10.70;99.90;;;;;;4919112;29;20215;-72
2021/09/29 20:19:12;;;;;;;2.42;2.33;;;10.70;99.90;;;;;;4918915;29;20234;-72
2021/09/29 20:21:40;;;;;;;2.13;2.03;;;10.70;99.90;;;;;;4919270;29;20574;-72
2021/09/29 20:24:07;;;;;;;2.20;2.20;;;10.70;99.90;;;;;;4919268;29;20301;-72
2021/09/29 20:26:34;;;;;;;2.13;2.10;;;10.70;99.90;;;;;;4919101;29;20522;-71
2021/09/29 20:29:01;;;;;;;2.00;2.00;;;10.70;99.90;;;;;;4919230;29;20210;-71
2021/09/29 20:31:29;;;;;;;2.00;2.00;;;10.70;99.90;;;;;;4919026;29;20226;-70